This is the latest recevied weather packets stored in our database for station/object E22ZMG-4. If no packets are shown the sender has not sent any weather packets the latest 10 day(s).
| Time | Temp. | Humidity | Pressure | Rain* | Wind** | Luminosity | Snow |
|---|---|---|---|---|---|---|---|
| 1777602810 | 27.78° C | 51% | 978 hPa | - | - | 0 W/m² | - |
| 1777602186 | 27.78° C | 54% | 978 hPa | - | - | 0 W/m² | - |
| 1777601562 | 27.78° C | 55% | 978 hPa | - | - | 0 W/m² | - |
| 1777600937 | 28.33° C | 57% | 978 hPa | - | - | 0 W/m² | - |
| 1777600313 | 28.33° C | 54% | 978 hPa | - | - | 0 W/m² | - |
| 1777599689 | 28.33° C | 51% | 978 hPa | - | - | 0 W/m² | - |
| 1777599064 | 28.33° C | 52% | 978 hPa | - | - | 0 W/m² | - |
| 1777598439 | 28.33° C | 51% | 978 hPa | - | - | 0 W/m² | - |
| 1777597814 | 29.44° C | 54% | 977 hPa | - | - | 0 W/m² | - |
| 1777597190 | 30° C | 58% | 977 hPa | - | - | 0 W/m² | - |
| 1777596566 | 29.44° C | 58% | 977 hPa | - | - | 0 W/m² | - |
| 1777595942 | 29.44° C | 59% | 977 hPa | - | - | 0 W/m² | - |
| 1777595317 | 28.89° C | 59% | 977 hPa | - | - | 0 W/m² | - |
| 1777594693 | 28.89° C | 59% | 977 hPa | - | - | 0 W/m² | - |
| 1777594068 | 28.89° C | 59% | 977 hPa | - | - | 0 W/m² | - |
| 1777593960 | 28.89° C | 59% | 977 hPa | - | - | 0 W/m² | - |
| 1777593335 | 28.89° C | 59% | 977 hPa | - | - | 0 W/m² | - |
| 1777592711 | 28.89° C | 59% | 977 hPa | - | - | 0 W/m² | - |
| 1777592086 | 28.89° C | 59% | 977 hPa | - | - | 0 W/m² | - |
| 1777591459 | 28.89° C | 59% | 977 hPa | - | - | 0 W/m² | - |
| 1777590834 | 28.89° C | 59% | 977 hPa | - | - | 0 W/m² | - |
| 1777590208 | 28.89° C | 59% | 976 hPa | - | - | 0 W/m² | - |
| 1777589584 | 28.89° C | 59% | 976 hPa | - | - | 0 W/m² | - |
| 1777588959 | 28.89° C | 59% | 976 hPa | - | - | 0 W/m² | - |
| 1777588334 | 28.89° C | 58% | 976 hPa | - | - | 0 W/m² | - |
* Rain since midnight (hover to see other rain measurements)
** Current wind speed in m/s (hover to see current wind gust speed)